createdAt,value
2024-05-09T00:00:35.297Z,11.10
2024-05-09T00:03:06.071Z,12.40
2024-05-09T00:05:33.069Z,14.82
2024-05-09T00:08:00.074Z,15.57
2024-05-09T00:10:35.238Z,14.10
2024-05-09T00:13:04.967Z,15.23
2024-05-09T00:15:32.106Z,12.07
2024-05-09T00:17:59.089Z,11.25
2024-05-09T00:20:33.677Z,12.63
2024-05-09T00:23:05.519Z,14.02
2024-05-09T00:25:34.782Z,14.27
2024-05-09T00:28:01.910Z,13.95
2024-05-09T00:30:34.285Z,15.02
2024-05-09T00:33:04.894Z,15.00
2024-05-09T00:35:32.730Z,15.98
2024-05-09T00:37:59.872Z,20.93
2024-05-09T00:40:35.545Z,17.35
2024-05-09T00:43:06.791Z,14.80
2024-05-09T00:45:36.608Z,15.05
2024-05-09T00:48:04.723Z,11.35
2024-05-09T00:50:37.529Z,16.87
2024-05-09T00:53:06.860Z,16.45
2024-05-09T00:55:35.653Z,21.95
2024-05-09T00:58:04.668Z,13.15
2024-05-09T01:00:38.430Z,17.92
2024-05-09T01:03:12.373Z,15.77
2024-05-09T01:05:41.231Z,13.45
2024-05-09T01:08:09.448Z,14.35
2024-05-09T01:10:37.201Z,15.18
2024-05-09T01:13:07.520Z,17.52
2024-05-09T01:15:35.376Z,16.20
2024-05-09T01:18:10.471Z,24.45
2024-05-09T01:20:42.293Z,15.30
2024-05-09T01:23:12.779Z,14.13
2024-05-09T01:25:40.665Z,15.80
2024-05-09T01:28:07.587Z,16.03
2024-05-09T01:30:37.075Z,16.60
2024-05-09T01:33:07.303Z,24.08
2024-05-09T01:35:36.312Z,13.45
2024-05-09T01:38:03.495Z,18.80
2024-05-09T01:40:37.277Z,14.10
2024-05-09T01:43:07.383Z,16.13
2024-05-09T01:45:34.406Z,15.30
2024-05-09T01:48:02.240Z,18.25
2024-05-09T01:50:37.858Z,16.77
2024-05-09T01:53:12.002Z,20.67
2024-05-09T01:55:39.171Z,17.30
2024-05-09T01:58:06.179Z,15.23
2024-05-09T02:00:39.003Z,16.88
2024-05-09T02:03:11.454Z,17.17
2024-05-09T02:05:41.311Z,16.30
2024-05-09T02:08:13.354Z,24.98
2024-05-09T02:10:40.214Z,21.83
2024-05-09T02:13:06.990Z,19.63
2024-05-09T02:15:34.057Z,20.80
2024-05-09T02:18:01.138Z,14.27
2024-05-09T02:20:34.235Z,17.85
2024-05-09T02:23:04.116Z,25.52
2024-05-09T02:25:31.967Z,14.60
2024-05-09T02:27:58.870Z,16.75
2024-05-09T02:30:35.721Z,16.13
2024-05-09T02:33:07.343Z,17.92
2024-05-09T02:35:35.048Z,16.15
2024-05-09T02:38:02.120Z,17.38
2024-05-09T02:40:36.475Z,15.93
2024-05-09T02:43:06.539Z,17.33
2024-05-09T02:45:33.604Z,19.17
2024-05-09T02:48:01.613Z,22.10
2024-05-09T02:50:37.115Z,17.58
2024-05-09T02:53:07.571Z,16.35
2024-05-09T02:55:34.729Z,26.77
2024-05-09T02:58:01.520Z,19.15
2024-05-09T03:00:36.898Z,17.98
2024-05-09T03:03:07.638Z,18.85
2024-05-09T03:05:35.262Z,21.73
2024-05-09T03:08:02.318Z,17.43
2024-05-09T03:10:35.244Z,19.00
2024-05-09T03:13:14.538Z,20.13
2024-05-09T03:15:43.161Z,18.33
2024-05-09T03:18:10.411Z,19.35
2024-05-09T03:20:37.634Z,17.80
2024-05-09T03:23:06.400Z,19.85
2024-05-09T03:25:33.836Z,20.10
2024-05-09T03:28:00.824Z,18.73
2024-05-09T03:30:36.035Z,18.60
2024-05-09T03:33:10.990Z,22.20
2024-05-09T03:35:38.535Z,16.05
2024-05-09T03:38:05.399Z,17.85
2024-05-09T03:40:32.328Z,19.73
2024-05-09T03:42:59.147Z,19.02
2024-05-09T03:45:25.981Z,20.57
2024-05-09T03:47:53.198Z,16.73
2024-05-09T03:50:29.471Z,20.23
2024-05-09T03:53:01.064Z,16.02
2024-05-09T03:55:28.535Z,20.10
2024-05-09T03:57:55.584Z,19.07
2024-05-09T04:00:31.059Z,18.33
2024-05-09T04:03:05.760Z,21.83
2024-05-09T04:05:34.104Z,18.20
2024-05-09T04:08:01.586Z,19.45
2024-05-09T04:10:33.282Z,20.50
2024-05-09T04:13:01.862Z,16.63
2024-05-09T04:15:28.924Z,16.98
2024-05-09T04:17:56.102Z,18.88
2024-05-09T04:20:33.466Z,25.80
2024-05-09T04:23:13.841Z,18.43
2024-05-09T04:25:45.486Z,17.40
2024-05-09T04:28:12.972Z,16.73
2024-05-09T04:30:41.486Z,19.08
2024-05-09T04:33:11.548Z,22.58
2024-05-09T04:35:40.547Z,18.23
2024-05-09T04:38:08.385Z,18.90
2024-05-09T04:40:37.113Z,21.42
2024-05-09T04:43:05.624Z,18.10
2024-05-09T04:45:32.738Z,16.75
2024-05-09T04:47:59.912Z,19.80
2024-05-09T04:50:35.546Z,17.98
2024-05-09T04:53:06.559Z,19.92
2024-05-09T04:55:33.972Z,16.73
2024-05-09T04:58:00.760Z,19.38
2024-05-09T05:00:35.299Z,17.60
2024-05-09T05:03:06.072Z,18.13
2024-05-09T05:05:33.527Z,18.08
2024-05-09T05:08:00.416Z,15.25
2024-05-09T05:10:33.798Z,19.75
2024-05-09T05:13:03.657Z,20.70
2024-05-09T05:15:30.478Z,19.30
2024-05-09T05:17:57.335Z,16.42
2024-05-09T05:20:31.134Z,16.40
2024-05-09T05:23:00.689Z,18.92
2024-05-09T05:25:27.756Z,23.07
2024-05-09T05:27:54.779Z,20.52
2024-05-09T05:30:28.678Z,17.88
2024-05-09T05:33:00.163Z,19.50
2024-05-09T05:35:27.378Z,23.00
2024-05-09T05:37:54.285Z,20.47
2024-05-09T05:40:28.292Z,22.88
2024-05-09T05:43:02.899Z,25.35
2024-05-09T05:45:29.783Z,20.38
2024-05-09T05:47:56.931Z,20.25
2024-05-09T05:50:31.605Z,24.20
2024-05-09T05:53:02.383Z,20.85
2024-05-09T05:55:29.171Z,25.75
2024-05-09T05:57:56.048Z,23.98
2024-05-09T06:00:29.808Z,25.67
2024-05-09T06:03:06.071Z,28.10
2024-05-09T06:05:33.279Z,24.27
2024-05-09T06:08:00.793Z,22.58
2024-05-09T06:10:37.159Z,23.33
2024-05-09T06:13:06.991Z,24.50
2024-05-09T06:15:33.997Z,23.90
2024-05-09T06:18:01.368Z,22.27
2024-05-09T06:20:35.508Z,20.13
2024-05-09T06:23:09.015Z,23.75
2024-05-09T06:25:36.640Z,20.98
2024-05-09T06:28:03.922Z,20.67
2024-05-09T06:30:38.180Z,22.92
2024-05-09T06:33:11.163Z,20.05
2024-05-09T06:35:40.595Z,18.10
2024-05-09T06:38:07.950Z,18.95
2024-05-09T06:40:38.441Z,19.33
2024-05-09T06:43:19.553Z,19.90
2024-05-09T06:45:48.586Z,18.08
2024-05-09T06:48:18.209Z,19.17
2024-05-09T06:50:45.764Z,15.13
2024-05-09T06:53:16.389Z,21.27
2024-05-09T06:55:43.559Z,16.98
2024-05-09T06:58:11.393Z,16.05
2024-05-09T07:00:49.489Z,17.05
2024-05-09T07:03:18.396Z,16.85
2024-05-09T07:05:48.619Z,17.13
2024-05-09T07:08:17.228Z,19.98
2024-05-09T07:10:44.924Z,16.55
2024-05-09T07:13:36.175Z,23.63
2024-05-09T07:16:23.168Z,19.38
2024-05-09T07:19:21.084Z,17.57
2024-05-09T07:22:09.365Z,15.43
2024-05-09T07:27:29.981Z,16.35
2024-05-09T07:30:04.018Z,18.00
2024-05-09T07:32:32.442Z,18.77
2024-05-09T07:34:59.516Z,16.02
2024-05-09T07:45:21.484Z,19.42
2024-05-09T07:52:45.945Z,16.63
2024-05-09T07:53:51.211Z,20.20
2024-05-09T07:56:26.632Z,21.38
2024-05-09T07:58:59.180Z,18.35
2024-05-09T08:04:06.617Z,19.33
2024-05-09T08:06:33.692Z,19.88
2024-05-09T08:09:13.891Z,20.70
2024-05-09T08:11:46.986Z,16.77
2024-05-09T08:14:23.229Z,16.40
2024-05-09T08:16:50.147Z,14.77
2024-05-09T08:19:29.123Z,18.35
2024-05-09T08:21:56.038Z,15.77
2024-05-09T08:24:35.318Z,16.48
2024-05-09T08:27:02.374Z,17.70
2024-05-09T08:29:32.487Z,16.80
2024-05-09T08:31:59.546Z,16.13
2024-05-09T08:34:49.137Z,16.20
2024-05-09T08:38:07.412Z,19.67
2024-05-09T08:44:15.926Z,15.13
2024-05-09T08:49:26.888Z,16.00
2024-05-09T08:52:49.739Z,14.10
2024-05-09T08:55:15.276Z,16.47
2024-05-09T08:57:52.313Z,17.48
2024-05-09T09:00:29.190Z,15.30
2024-05-09T09:03:11.620Z,20.58
2024-05-09T09:05:45.367Z,13.55
2024-05-09T09:08:18.685Z,17.37
2024-05-09T09:10:47.638Z,23.25
2024-05-09T09:13:28.924Z,16.48
2024-05-09T09:15:56.673Z,16.02
2024-05-09T09:18:33.508Z,19.02
2024-05-09T09:21:00.545Z,17.67
2024-05-09T09:23:38.723Z,18.90
2024-05-09T09:28:47.240Z,17.73
2024-05-09T09:31:21.402Z,16.73
2024-05-09T09:36:56.419Z,19.48
2024-05-09T09:39:37.784Z,17.92
2024-05-09T09:42:06.069Z,16.55
2024-05-09T09:45:30.482Z,17.45
2024-05-09T09:47:49.559Z,16.30
2024-05-09T09:50:33.357Z,14.10
2024-05-09T09:53:18.307Z,17.35
2024-05-09T09:55:55.482Z,18.80
2024-05-09T09:58:23.949Z,16.45
2024-05-09T10:00:51.072Z,24.03
2024-05-09T10:11:22.817Z,17.92
2024-05-09T10:13:54.007Z,16.03
2024-05-09T10:16:21.477Z,19.00
2024-05-09T10:18:51.910Z,19.33
2024-05-09T11:05:38.080Z,17.42
2024-05-09T11:08:14.053Z,15.57
2024-05-09T11:10:41.606Z,22.50
2024-05-09T11:23:57.255Z,19.47
2024-05-09T11:34:33.358Z,16.30
2024-05-09T11:37:14.787Z,15.83
2024-05-09T11:39:49.393Z,13.63
2024-05-09T11:42:42.639Z,16.15
2024-05-09T11:47:59.688Z,18.80
2024-05-09T11:58:32.399Z,15.38
2024-05-09T12:04:03.855Z,19.00
2024-05-09T13:01:19.067Z,19.17
2024-05-09T13:18:57.970Z,20.02
2024-05-09T13:24:10.895Z,23.70
2024-05-09T13:26:47.069Z,21.02
2024-05-09T13:29:26.385Z,22.57
2024-05-09T13:31:53.444Z,20.92
2024-05-09T13:53:52.386Z,25.35
2024-05-09T13:56:19.369Z,22.00
2024-05-09T13:58:46.316Z,22.83
2024-05-09T14:01:25.579Z,24.85
2024-05-09T14:06:34.593Z,23.98
2024-05-09T14:11:47.111Z,25.75
2024-05-09T14:14:14.444Z,26.23
2024-05-09T14:17:12.644Z,25.23
2024-05-09T14:19:44.394Z,27.85
2024-05-09T14:22:11.418Z,27.87
2024-05-09T14:24:38.381Z,26.88
2024-05-09T14:27:13.480Z,31.55
2024-05-09T14:29:52.332Z,26.75
2024-05-09T14:32:19.226Z,26.05
2024-05-09T14:34:46.191Z,26.67
2024-05-09T14:37:19.333Z,30.92
2024-05-09T14:39:49.968Z,33.13
2024-05-09T14:42:37.310Z,32.17
2024-05-09T14:45:04.718Z,31.45
2024-05-09T14:53:07.671Z,29.77
2024-05-09T14:55:39.563Z,31.77
2024-05-09T14:58:07.978Z,35.78
2024-05-09T15:00:45.946Z,30.80
2024-05-09T15:08:55.980Z,31.55
2024-05-09T15:11:23.438Z,30.25
2024-05-09T15:13:55.375Z,27.17
2024-05-09T15:16:22.495Z,32.42
2024-05-09T15:18:49.732Z,31.10
2024-05-09T15:21:16.750Z,29.55
2024-05-09T15:23:43.551Z,32.00
2024-05-09T15:26:10.684Z,39.13
2024-05-09T15:28:37.505Z,30.80
2024-05-09T15:31:10.301Z,35.55
2024-05-09T15:33:37.365Z,30.67
2024-05-09T15:36:04.500Z,29.95
2024-05-09T15:38:31.467Z,30.80
2024-05-09T15:40:58.302Z,30.17
2024-05-09T15:43:28.539Z,30.25
2024-05-09T15:45:55.536Z,32.47
2024-05-09T15:48:22.595Z,30.52
2024-05-09T15:50:49.620Z,32.20
2024-05-09T15:53:16.733Z,33.50
2024-05-09T15:55:43.764Z,39.30
2024-05-09T15:58:11.384Z,33.92
2024-05-09T16:00:41.747Z,29.75
2024-05-09T16:03:14.617Z,32.90
2024-05-09T16:05:46.892Z,28.48
2024-05-09T16:11:07.788Z,36.92
2024-05-09T16:13:37.213Z,37.55
2024-05-09T16:22:22.668Z,38.47
2024-05-09T16:30:11.842Z,26.03
2024-05-09T16:32:52.420Z,28.17
2024-05-09T16:40:38.724Z,31.27
2024-05-09T16:43:09.125Z,29.17
2024-05-09T16:45:36.647Z,29.73
2024-05-09T16:48:04.687Z,34.80
2024-05-09T16:50:34.303Z,28.45
2024-05-09T16:53:03.604Z,26.95
2024-05-09T17:00:48.493Z,27.15
2024-05-09T17:03:16.897Z,32.20
2024-05-09T17:05:44.875Z,30.33
2024-05-09T17:08:12.565Z,28.83
2024-05-09T17:10:39.481Z,27.42
2024-05-09T17:13:07.697Z,27.80
2024-05-09T17:15:36.913Z,29.00
2024-05-09T17:18:06.069Z,29.95
2024-05-09T17:20:36.082Z,29.20
2024-05-09T17:23:26.321Z,24.65
2024-05-09T17:25:53.059Z,30.02
2024-05-09T17:28:20.386Z,25.38
2024-05-09T17:30:48.760Z,31.23
2024-05-09T17:33:15.957Z,30.57
2024-05-09T17:35:42.974Z,26.05
2024-05-09T17:38:09.731Z,27.95
2024-05-09T17:40:39.768Z,24.48
2024-05-09T18:00:36.207Z,28.27
2024-05-09T18:03:12.618Z,27.15
2024-05-09T18:08:22.662Z,30.17
2024-05-09T18:10:50.678Z,31.92
2024-05-09T18:13:19.047Z,27.97
2024-05-09T18:15:45.989Z,23.90
2024-05-09T18:18:13.395Z,30.42
2024-05-09T18:20:44.462Z,27.60
2024-05-09T18:23:18.202Z,26.20
2024-05-09T18:25:46.176Z,21.83
2024-05-09T18:28:13.752Z,24.70
2024-05-09T18:30:40.843Z,24.75
2024-05-09T18:33:09.921Z,22.15
2024-05-09T18:41:09.149Z,27.60
2024-05-09T18:43:42.234Z,23.55
2024-05-09T18:46:24.816Z,21.75
2024-05-09T19:04:07.312Z,19.98
2024-05-09T19:27:10.086Z,18.65
2024-05-09T19:29:45.683Z,16.35
2024-05-09T19:37:45.343Z,20.52
2024-05-09T20:10:37.139Z,26.85
2024-05-09T20:15:43.348Z,25.47
2024-05-09T20:18:12.064Z,29.10
2024-05-09T20:29:24.493Z,30.97
2024-05-09T20:31:52.092Z,29.52
2024-05-09T20:39:41.764Z,30.73
2024-05-09T20:55:48.304Z,33.90
2024-05-09T20:58:16.190Z,33.53
2024-05-09T21:00:49.457Z,38.15
2024-05-09T21:03:17.647Z,34.08
2024-05-09T21:05:45.263Z,35.65
2024-05-09T21:08:12.554Z,35.67
2024-05-09T21:13:58.237Z,40.60
2024-05-09T21:16:31.893Z,37.45
2024-05-09T21:21:39.520Z,35.17
2024-05-09T21:24:06.670Z,34.25
2024-05-09T21:26:37.603Z,39.75
2024-05-09T21:29:04.435Z,37.03
2024-05-09T21:31:31.381Z,39.00
2024-05-09T21:33:58.359Z,36.47
2024-05-09T21:36:25.752Z,37.88
2024-05-09T21:38:52.605Z,40.25
2024-05-09T21:41:19.446Z,41.58
2024-05-09T21:43:46.420Z,39.22
2024-05-09T21:46:13.457Z,40.37
2024-05-09T21:48:40.527Z,39.85
2024-05-09T21:51:13.856Z,38.70
2024-05-09T21:53:42.161Z,34.47
2024-05-09T21:56:09.283Z,36.33
2024-05-09T21:58:36.477Z,35.70
2024-05-09T22:01:03.411Z,38.03
2024-05-09T22:03:30.422Z,33.85
2024-05-09T22:05:57.437Z,39.72
2024-05-09T22:08:24.257Z,37.50
2024-05-09T22:10:51.188Z,31.77
2024-05-09T22:13:18.749Z,36.53
2024-05-09T22:15:47.165Z,36.75
2024-05-09T22:20:59.054Z,36.85
2024-05-09T22:23:25.852Z,33.00
2024-05-09T22:25:52.756Z,33.50
2024-05-09T22:28:20.376Z,33.80
2024-05-09T22:30:47.816Z,39.22
2024-05-09T22:33:14.997Z,37.33
2024-05-09T22:35:42.180Z,34.67
2024-05-09T22:38:09.171Z,35.40
2024-05-09T22:40:46.761Z,38.88
2024-05-09T22:43:21.700Z,34.30
2024-05-09T22:45:50.897Z,36.67
2024-05-09T22:48:18.348Z,37.17
2024-05-09T22:50:45.286Z,35.28
2024-05-09T22:53:12.207Z,40.20
2024-05-09T22:55:39.164Z,35.85
2024-05-09T22:58:06.560Z,38.38
2024-05-09T23:00:33.817Z,39.60
2024-05-09T23:03:01.809Z,36.72
2024-05-09T23:05:29.779Z,37.10
2024-05-09T23:07:56.966Z,41.05
2024-05-09T23:10:31.919Z,34.35
2024-05-09T23:13:03.682Z,40.43
2024-05-09T23:15:31.082Z,35.42
2024-05-09T23:17:58.673Z,41.63
2024-05-09T23:20:35.875Z,37.92
2024-05-09T23:23:07.154Z,36.90
2024-05-09T23:25:34.776Z,37.73
2024-05-09T23:28:01.870Z,36.80
2024-05-09T23:30:36.632Z,38.80
2024-05-09T23:33:07.011Z,41.00
2024-05-09T23:35:34.034Z,39.28
2024-05-09T23:38:00.917Z,40.77
2024-05-09T23:40:37.612Z,47.85
2024-05-09T23:43:07.890Z,46.55
2024-05-09T23:45:35.084Z,44.70
2024-05-09T23:48:02.438Z,43.72
2024-05-09T23:50:34.825Z,40.13
2024-05-09T23:53:05.218Z,41.03
2024-05-09T23:55:32.648Z,39.97
2024-05-09T23:57:59.956Z,41.88
